Time;durP1;ratioP1;P1;durP2;ratioP2;P2;SDS_P1;SDS_P2;PMS_P1;PMS_P2;Temp;Humidity;BMP_temperature;BMP_pressure;BME280_temperature;BME280_humidity;BME280_pressure;Samples;Min_cycle;Max_cycle;Signal;HPM_P1;HPM_P2
2023/03/05 00:01:29;;;;;;;36.92;23.65;;;9.00;99.90;;;;;;4897097;29;20040;-67
2023/03/05 00:03:57;;;;;;;35.35;22.73;;;8.90;99.90;;;;;;4931631;29;20115;-68
2023/03/05 00:06:28;;;;;;;34.15;23.00;;;9.00;99.90;;;;;;4916946;29;20399;-70
2023/03/05 00:08:57;;;;;;;35.55;22.63;;;9.00;99.90;;;;;;4916273;29;20138;-70
2023/03/05 00:11:28;;;;;;;37.55;23.33;;;8.90;99.90;;;;;;4916351;29;20050;-70
2023/03/05 00:13:57;;;;;;;33.47;22.95;;;8.90;99.90;;;;;;4933499;29;20067;-69
2023/03/05 00:16:26;;;;;;;37.72;23.17;;;9.00;99.90;;;;;;4916460;29;20040;-68
2023/03/05 00:18:55;;;;;;;34.88;21.65;;;9.00;99.90;;;;;;4916817;29;20400;-67
2023/03/05 00:21:25;;;;;;;30.98;21.02;;;9.10;99.90;;;;;;4914992;29;20130;-69
2023/03/05 00:23:55;;;;;;;34.47;20.67;;;9.10;99.90;;;;;;4932953;29;20044;-68
2023/03/05 00:26:24;;;;;;;34.10;20.63;;;9.00;99.90;;;;;;4933251;29;20539;-69
2023/03/05 00:28:53;;;;;;;29.58;19.05;;;8.90;99.90;;;;;;4932463;29;20173;-69
2023/03/05 00:31:23;;;;;;;29.58;17.88;;;8.90;99.90;;;;;;4931960;29;20043;-68
2023/03/05 00:33:53;;;;;;;24.67;16.08;;;8.90;99.90;;;;;;4932859;29;20042;-68
2023/03/05 00:36:21;;;;;;;25.15;16.67;;;8.90;99.90;;;;;;4932400;29;20403;-69
2023/03/05 00:38:48;;;;;;;24.17;16.90;;;8.90;99.90;;;;;;4931542;29;20064;-68
2023/03/05 00:41:15;;;;;;;27.48;17.90;;;8.90;99.90;;;;;;4933528;29;20648;-69
2023/03/05 00:43:44;;;;;;;25.40;17.58;;;9.00;99.90;;;;;;4933166;29;20040;-68
2023/03/05 00:46:11;;;;;;;32.90;22.02;;;8.90;99.90;;;;;;4927944;29;20036;-67
2023/03/05 00:48:39;;;;;;;34.15;20.05;;;8.90;99.90;;;;;;4932501;29;20114;-67
2023/03/05 00:51:08;;;;;;;26.70;17.73;;;8.90;99.90;;;;;;4915478;29;20408;-68
2023/03/05 00:53:35;;;;;;;29.15;16.85;;;8.90;99.90;;;;;;4933330;29;20036;-67
2023/03/05 00:56:02;;;;;;;26.05;15.60;;;8.90;99.90;;;;;;4933901;29;20047;-67
2023/03/05 00:58:30;;;;;;;23.25;15.25;;;8.90;99.90;;;;;;4932606;29;20032;-69
2023/03/05 01:00:59;;;;;;;20.48;14.85;;;8.90;99.90;;;;;;4933718;29;20099;-71
2023/03/05 01:03:26;;;;;;;23.35;15.35;;;8.80;99.90;;;;;;4933586;29;20044;-66
2023/03/05 01:05:54;;;;;;;22.05;14.23;;;8.80;99.90;;;;;;4933446;29;20047;-69
2023/03/05 01:08:21;;;;;;;23.75;15.52;;;8.80;99.90;;;;;;4903471;29;20401;-70
2023/03/05 01:10:49;;;;;;;25.10;15.75;;;8.80;99.90;;;;;;4928148;29;20046;-71
2023/03/05 01:13:16;;;;;;;23.75;14.07;;;8.90;99.90;;;;;;4933398;29;20036;-69
2023/03/05 01:15:45;;;;;;;24.48;14.88;;;8.90;99.90;;;;;;4933170;29;20046;-70
2023/03/05 01:18:13;;;;;;;21.20;15.60;;;8.80;99.90;;;;;;4897744;29;20044;-70
2023/03/05 01:20:40;;;;;;;23.05;16.35;;;8.80;99.90;;;;;;4930202;29;20538;-71
2023/03/05 01:23:08;;;;;;;22.40;16.17;;;8.80;99.90;;;;;;4916012;29;20056;-71
2023/03/05 01:25:35;;;;;;;25.85;16.83;;;8.80;99.90;;;;;;4916484;29;20051;-67
2023/03/05 01:28:03;;;;;;;25.13;16.40;;;8.80;99.90;;;;;;4933612;29;20115;-69
2023/03/05 01:30:30;;;;;;;28.20;17.48;;;8.70;99.90;;;;;;4933323;29;20055;-68
2023/03/05 01:32:57;;;;;;;25.30;17.35;;;8.70;99.90;;;;;;4919791;29;20044;-68
2023/03/05 01:35:25;;;;;;;24.63;16.70;;;8.60;99.90;;;;;;4931356;29;20036;-69
2023/03/05 01:37:53;;;;;;;27.05;15.85;;;8.50;99.90;;;;;;4931793;29;20055;-68
2023/03/05 01:40:25;;;;;;;26.17;16.98;;;8.40;99.90;;;;;;4935233;29;20131;-66
2023/03/05 01:43:25;;;;;;;27.67;19.52;;;8.60;99.90;;;;;;4912631;29;20435;-68
2023/03/05 01:46:11;;;;;;;25.90;17.63;;;8.70;99.90;;;;;;4936582;29;20055;-66
2023/03/05 01:48:41;;;;;;;27.42;18.58;;;8.80;99.90;;;;;;4935580;29;20047;-70
2023/03/05 01:51:08;;;;;;;28.05;18.08;;;8.70;99.90;;;;;;4919990;29;20060;-70
2023/03/05 01:53:36;;;;;;;26.88;17.73;;;8.80;99.90;;;;;;4936664;29;20044;-68
2023/03/05 01:56:04;;;;;;;30.25;17.00;;;8.80;99.90;;;;;;4919830;29;20058;-70
2023/03/05 01:58:32;;;;;;;27.23;19.10;;;8.70;99.90;;;;;;4936594;29;20051;-70
2023/03/05 02:01:00;;;;;;;29.92;19.58;;;8.50;99.90;;;;;;4936536;29;20040;-68
2023/03/05 02:03:28;;;;;;;33.20;18.45;;;8.40;99.90;;;;;;4919514;29;20131;-70
2023/03/05 02:05:55;;;;;;;30.20;18.92;;;8.40;99.90;;;;;;4936289;29;20059;-70
2023/03/05 02:08:22;;;;;;;28.73;19.60;;;8.30;99.90;;;;;;4927142;29;20070;-70
2023/03/05 02:10:54;;;;;;;28.77;19.17;;;8.30;99.90;;;;;;4936230;29;20463;-70
2023/03/05 02:13:24;;;;;;;27.70;18.63;;;8.40;99.90;;;;;;4917093;29;20031;-69
2023/03/05 02:15:53;;;;;;;29.55;19.27;;;8.50;99.90;;;;;;4936158;29;20043;-67
2023/03/05 02:18:58;;;;;;;28.60;18.53;;;8.50;99.90;;;;;;4927421;29;20075;-69
2023/03/05 02:21:34;;;;;;;30.70;20.45;;;8.50;99.90;;;;;;4908581;29;20040;-69
2023/03/05 02:24:01;;;;;;;30.40;18.92;;;8.40;99.90;;;;;;4926908;29;20062;-69
2023/03/05 02:26:29;;;;;;;31.50;20.40;;;8.30;99.90;;;;;;4903338;29;20492;-69
2023/03/05 02:28:59;;;;;;;31.15;19.10;;;8.40;99.90;;;;;;4919233;29;20443;-69
2023/03/05 02:31:27;;;;;;;;;;;8.50;99.90;;;;;;4935581;29;20039;-68
2023/03/05 02:33:57;;;;;;;30.88;19.33;;;8.40;99.90;;;;;;4936104;29;19922;-69
2023/03/05 02:36:24;;;;;;;30.73;20.55;;;8.40;99.90;;;;;;4913217;29;20059;-69
2023/03/05 02:38:52;;;;;;;35.70;20.52;;;8.50;99.90;;;;;;4914791;29;20052;-68
2023/03/05 02:41:19;;;;;;;34.42;21.67;;;8.50;99.90;;;;;;4935634;29;20051;-69
2023/03/05 02:43:47;;;;;;;33.90;22.25;;;8.60;99.90;;;;;;4934508;29;20658;-67
2023/03/05 02:46:16;;;;;;;34.35;20.58;;;8.70;99.90;;;;;;4919341;29;20048;-67
2023/03/05 02:48:43;;;;;;;31.80;20.70;;;8.70;99.90;;;;;;4918039;29;20051;-67
2023/03/05 02:51:11;;;;;;;33.17;20.05;;;8.70;99.90;;;;;;4934082;29;20079;-68
2023/03/05 02:53:38;;;;;;;28.58;19.63;;;8.80;99.90;;;;;;4913685;29;20052;-68
2023/03/05 02:56:06;;;;;;;26.73;19.02;;;8.80;99.90;;;;;;4928638;29;20040;-67
2023/03/05 02:58:33;;;;;;;32.83;19.85;;;8.70;99.90;;;;;;4913734;29;20056;-69
2023/03/05 03:01:00;;;;;;;23.85;17.98;;;8.50;99.90;;;;;;4929017;29;20399;-70
2023/03/05 03:03:28;;;;;;;24.92;17.77;;;8.60;99.90;;;;;;4935165;29;20456;-67
2023/03/05 03:05:55;;;;;;;24.90;17.80;;;8.60;99.90;;;;;;4934962;29;20053;-70
2023/03/05 03:08:22;;;;;;;26.40;17.50;;;8.70;99.90;;;;;;4935491;29;20043;-68
2023/03/05 03:10:50;;;;;;;29.50;17.27;;;8.70;99.90;;;;;;4913227;29;20059;-69
2023/03/05 03:13:17;;;;;;;22.80;16.67;;;8.70;99.90;;;;;;4933828;29;20486;-69
2023/03/05 03:15:44;;;;;;;27.98;18.40;;;8.70;99.90;;;;;;4905575;29;20052;-68
2023/03/05 03:18:11;;;;;;;30.70;17.95;;;8.70;99.90;;;;;;4933896;29;20059;-66
2023/03/05 03:20:39;;;;;;;26.10;17.42;;;8.70;99.90;;;;;;4934720;29;20531;-69
2023/03/05 03:23:07;;;;;;;26.70;17.55;;;8.60;99.90;;;;;;4905596;29;20055;-68
2023/03/05 03:25:34;;;;;;;24.13;17.83;;;8.60;99.90;;;;;;4918405;29;20040;-68
2023/03/05 03:28:01;;;;;;;29.08;18.25;;;8.60;99.90;;;;;;4918035;29;20051;-68
2023/03/05 03:30:29;;;;;;;26.80;17.75;;;8.60;99.90;;;;;;4935033;29;20046;-68
2023/03/05 03:32:56;;;;;;;25.63;17.48;;;8.60;99.90;;;;;;4935010;29;20039;-68
2023/03/05 03:35:23;;;;;;;25.45;17.13;;;8.70;99.90;;;;;;4934322;29;20043;-69
2023/03/05 03:37:51;;;;;;;21.92;16.05;;;8.70;99.90;;;;;;4923167;29;20407;-69
2023/03/05 03:40:18;;;;;;;22.52;16.73;;;8.70;99.90;;;;;;4917771;29;20051;-68
2023/03/05 03:42:45;;;;;;;25.98;16.83;;;8.70;99.90;;;;;;4914574;29;20514;-67
2023/03/05 03:45:13;;;;;;;25.75;15.88;;;8.70;99.90;;;;;;4930562;29;20048;-67
2023/03/05 03:47:40;;;;;;;24.77;16.70;;;8.70;99.90;;;;;;4934864;29;20044;-68
2023/03/05 03:50:08;;;;;;;27.67;16.02;;;8.60;99.90;;;;;;4934620;29;20568;-69
2023/03/05 03:52:36;;;;;;;26.85;17.27;;;8.60;99.90;;;;;;4934949;29;20130;-69
2023/03/05 03:55:03;;;;;;;26.55;17.95;;;8.60;99.90;;;;;;4914164;29;20516;-69
2023/03/05 03:57:32;;;;;;;24.40;17.15;;;8.70;99.90;;;;;;4926264;29;20502;-68
2023/03/05 04:00:00;;;;;;;27.10;18.92;;;8.70;99.90;;;;;;4934065;29;20312;-69
2023/03/05 04:02:27;;;;;;;26.52;19.00;;;8.60;99.90;;;;;;4933546;29;20043;-69
2023/03/05 04:04:54;;;;;;;27.52;17.55;;;8.60;99.90;;;;;;4933333;29;20040;-68
2023/03/05 04:07:22;;;;;;;26.38;17.65;;;8.60;99.90;;;;;;4934519;29;20059;-68
2023/03/05 04:09:49;;;;;;;37.33;20.02;;;8.70;99.90;;;;;;4916828;29;20054;-68
2023/03/05 04:12:17;;;;;;;26.95;19.00;;;8.60;99.90;;;;;;4917414;29;20047;-69
2023/03/05 04:14:45;;;;;;;27.25;19.30;;;8.60;99.90;;;;;;4934178;29;20484;-69
2023/03/05 04:17:14;;;;;;;28.15;18.75;;;8.50;99.90;;;;;;4934021;29;20047;-70
2023/03/05 04:19:42;;;;;;;32.33;19.30;;;8.40;99.90;;;;;;4934008;29;20044;-69
2023/03/05 04:22:11;;;;;;;33.75;19.67;;;8.30;99.90;;;;;;4906240;29;20051;-69
2023/03/05 04:24:38;;;;;;;29.52;20.48;;;8.20;99.90;;;;;;4916886;29;20051;-70
2023/03/05 04:27:06;;;;;;;34.80;21.48;;;8.30;99.90;;;;;;4934013;29;20047;-69
2023/03/05 04:29:34;;;;;;;32.47;21.38;;;8.30;99.90;;;;;;4933688;29;20562;-69
2023/03/05 04:32:02;;;;;;;33.70;20.30;;;8.40;99.90;;;;;;4932807;29;20381;-69
2023/03/05 04:34:29;;;;;;;27.27;18.35;;;8.50;99.90;;;;;;4914669;29;20099;-69
2023/03/05 04:36:57;;;;;;;27.60;18.38;;;8.40;99.90;;;;;;4921187;29;20044;-69
2023/03/05 04:39:24;;;;;;;30.30;18.88;;;8.40;99.90;;;;;;4933549;29;20408;-68
2023/03/05 04:41:51;;;;;;;28.08;18.45;;;8.40;99.90;;;;;;4933518;29;20411;-69
2023/03/05 04:44:18;;;;;;;26.70;17.63;;;8.50;99.90;;;;;;4917260;29;20040;-69
2023/03/05 04:46:46;;;;;;;23.98;16.92;;;8.40;99.90;;;;;;4916810;29;20671;-68
2023/03/05 04:49:13;;;;;;;26.08;17.17;;;8.30;99.90;;;;;;4917323;29;20079;-68
2023/03/05 04:51:41;;;;;;;30.42;17.67;;;8.30;99.90;;;;;;4933584;29;20409;-69
2023/03/05 04:54:08;;;;;;;29.10;18.27;;;8.40;99.90;;;;;;4926794;29;20095;-69
2023/03/05 04:56:36;;;;;;;27.38;18.27;;;8.30;99.90;;;;;;4932258;29;20048;-68
2023/03/05 04:59:03;;;;;;;27.88;18.95;;;8.20;99.90;;;;;;4933867;29;20385;-69
2023/03/05 05:01:31;;;;;;;25.60;17.77;;;8.20;99.90;;;;;;4931747;29;20050;-66
2023/03/05 05:03:59;;;;;;;30.60;19.75;;;8.20;99.90;;;;;;4933780;29;20044;-68
2023/03/05 05:06:26;;;;;;;26.33;18.15;;;8.20;99.90;;;;;;4933235;29;20075;-69
2023/03/05 05:08:56;;;;;;;29.27;20.05;;;8.20;99.90;;;;;;4932297;29;20107;-69
2023/03/05 05:11:23;;;;;;;29.33;18.83;;;8.30;99.90;;;;;;4928823;29;20385;-68
2023/03/05 05:13:50;;;;;;;26.73;17.95;;;8.30;99.90;;;;;;4934599;29;20047;-67
2023/03/05 05:16:18;;;;;;;28.70;18.40;;;8.30;99.90;;;;;;4935889;29;20036;-67
2023/03/05 05:18:45;;;;;;;28.05;17.65;;;8.30;99.90;;;;;;4937529;29;20052;-68
2023/03/05 05:21:13;;;;;;;26.48;18.55;;;8.30;99.90;;;;;;4905130;29;20054;-67
2023/03/05 05:23:41;;;;;;;27.95;19.77;;;8.40;99.90;;;;;;4925399;29;20048;-69
2023/03/05 05:26:09;;;;;;;27.27;19.08;;;8.30;99.90;;;;;;4936740;29;20050;-68
2023/03/05 05:28:37;;;;;;;30.33;19.63;;;8.30;99.90;;;;;;4937575;29;20768;-68
2023/03/05 05:31:09;;;;;;;26.17;19.13;;;8.40;99.90;;;;;;4924259;29;20488;-69
2023/03/05 05:33:37;;;;;;;27.63;18.92;;;8.40;99.90;;;;;;4937332;29;20046;-68
2023/03/05 05:36:06;;;;;;;32.47;18.60;;;8.20;99.90;;;;;;4914510;29;20378;-67
2023/03/05 05:38:34;;;;;;;28.75;19.58;;;8.30;99.90;;;;;;4930862;29;20475;-68
2023/03/05 05:41:21;;;;;;;33.50;21.38;;;8.50;99.90;;;;;;4917324;29;20408;-68
2023/03/05 05:43:48;;;;;;;30.65;19.88;;;8.50;99.90;;;;;;4901215;29;20514;-68
2023/03/05 05:46:18;;;;;;;30.17;19.80;;;8.60;99.90;;;;;;4926924;29;20420;-66
2023/03/05 05:48:46;;;;;;;33.25;20.30;;;8.50;99.90;;;;;;4916625;29;20052;-67
2023/03/05 05:51:19;;;;;;;30.63;18.80;;;8.10;99.90;;;;;;4909300;29;20051;-68
2023/03/05 05:53:47;;;;;;;32.83;19.83;;;7.80;99.90;;;;;;4936614;29;20119;-67
2023/03/05 05:56:15;;;;;;;31.80;18.83;;;7.80;99.90;;;;;;4919577;29;20040;-68
2023/03/05 05:58:46;;;;;;;28.13;17.50;;;7.80;99.90;;;;;;4937422;29;20048;-68
2023/03/05 06:01:17;;;;;;;32.05;17.67;;;7.70;99.90;;;;;;4936169;29;20048;-70
2023/03/05 06:03:44;;;;;;;;;;;7.90;99.90;;;;;;4937296;29;20418;-68
2023/03/05 06:06:13;;;;;;;33.08;18.52;;;8.00;99.90;;;;;;4919759;29;20315;-68
2023/03/05 06:08:42;;;;;;;27.80;18.23;;;7.80;99.90;;;;;;4935652;29;20393;-70
2023/03/05 06:11:09;;;;;;;35.58;18.92;;;8.00;99.90;;;;;;4935590;29;20285;-68
2023/03/05 06:13:36;;;;;;;30.63;18.88;;;8.20;99.90;;;;;;4936294;29;20903;-69
2023/03/05 06:16:08;;;;;;;26.25;17.88;;;8.30;99.90;;;;;;4903500;29;20051;-69
2023/03/05 06:18:35;;;;;;;30.98;18.92;;;8.40;99.90;;;;;;4936368;29;20047;-70
2023/03/05 06:21:06;;;;;;;32.78;19.17;;;8.40;99.90;;;;;;4903726;29;20040;-69
2023/03/05 06:23:34;;;;;;;33.50;19.77;;;8.40;99.90;;;;;;4903184;29;20114;-69
2023/03/05 06:26:03;;;;;;;32.20;18.58;;;8.40;99.90;;;;;;4918448;29;20076;-67
2023/03/05 06:28:31;;;;;;;32.67;17.43;;;8.50;99.90;;;;;;4919815;29;20042;-69
2023/03/05 06:31:14;;;;;;;30.33;18.05;;;8.60;99.90;;;;;;4930950;29;20051;-69
2023/03/05 06:33:41;;;;;;;31.75;18.35;;;8.60;99.90;;;;;;4936291;29;20043;-67
2023/03/05 06:36:11;;;;;;;27.35;17.75;;;8.60;99.90;;;;;;4929724;29;20096;-69
2023/03/05 06:38:39;;;;;;;28.85;17.13;;;8.60;99.90;;;;;;4930233;29;20484;-69
2023/03/05 06:41:10;;;;;;;28.67;17.63;;;8.50;99.90;;;;;;4936247;29;20044;-69
2023/03/05 06:43:40;;;;;;;29.88;17.40;;;8.50;99.90;;;;;;4935720;29;20126;-69
2023/03/05 06:46:10;;;;;;;26.57;16.57;;;8.60;99.90;;;;;;4936170;29;20054;-68
2023/03/05 06:48:37;;;;;;;30.42;17.83;;;8.60;99.90;;;;;;4935625;29;20495;-68
2023/03/05 06:51:11;;;;;;;25.70;16.95;;;8.50;99.90;;;;;;4935694;29;20051;-68
2023/03/05 06:53:38;;;;;;;26.77;16.67;;;8.30;99.90;;;;;;4918673;29;20492;-69
2023/03/05 06:56:06;;;;;;;27.92;17.35;;;8.20;99.90;;;;;;4935655;29;20561;-68
2023/03/05 06:58:33;;;;;;;35.20;18.00;;;8.10;99.90;;;;;;4912930;29;20040;-69
2023/03/05 07:01:03;;;;;;;30.13;17.98;;;8.10;99.90;;;;;;4916959;29;20123;-68
2023/03/05 07:03:30;;;;;;;25.43;17.43;;;8.10;99.90;;;;;;4899885;29;20088;-69
2023/03/05 07:05:57;;;;;;;27.65;16.50;;;8.10;99.90;;;;;;4930075;29;20296;-67
2023/03/05 07:08:25;;;;;;;30.05;17.00;;;8.00;99.90;;;;;;4928600;29;20047;-68
2023/03/05 07:10:52;;;;;;;29.42;18.65;;;7.90;99.90;;;;;;4916288;29;20055;-68
2023/03/05 07:13:19;;;;;;;30.10;18.70;;;8.00;99.90;;;;;;4935581;29;20044;-70
2023/03/05 07:15:46;;;;;;;31.23;17.75;;;8.20;99.90;;;;;;4934001;29;20047;-68
2023/03/05 07:18:13;;;;;;;27.80;17.92;;;8.30;99.90;;;;;;4934943;29;20114;-69
2023/03/05 07:20:41;;;;;;;31.95;17.98;;;8.40;99.90;;;;;;4933885;29;20103;-70
2023/03/05 07:23:08;;;;;;;26.95;17.08;;;8.40;99.90;;;;;;4922604;29;20050;-70
2023/03/05 07:25:36;;;;;;;29.00;19.30;;;8.30;99.90;;;;;;4934614;29;20047;-69
2023/03/05 07:28:05;;;;;;;29.38;18.35;;;8.10;99.90;;;;;;4914951;29;20043;-69
2023/03/05 07:30:35;;;;;;;29.90;18.98;;;8.10;99.90;;;;;;4934180;29;20044;-69
2023/03/05 07:33:02;;;;;;;28.27;16.88;;;8.20;99.90;;;;;;4902548;29;20480;-69
2023/03/05 07:35:29;;;;;;;29.85;17.40;;;8.20;99.90;;;;;;4933540;29;20408;-68
2023/03/05 07:37:56;;;;;;;27.67;17.63;;;8.20;99.90;;;;;;4917520;29;20060;-69
2023/03/05 07:40:24;;;;;;;27.88;15.27;;;8.20;99.90;;;;;;4934453;29;20054;-70
2023/03/05 07:42:53;;;;;;;27.90;16.17;;;8.00;99.90;;;;;;4915649;29;20048;-68
2023/03/05 07:45:20;;;;;;;21.98;13.60;;;8.10;99.90;;;;;;4914399;29;20070;-68
2023/03/05 07:47:47;;;;;;;24.63;15.32;;;8.20;99.90;;;;;;4925170;29;20039;-69
2023/03/05 07:50:17;;;;;;;22.27;14.10;;;8.30;99.90;;;;;;4925010;29;20074;-70
2023/03/05 07:52:45;;;;;;;21.08;13.52;;;8.40;99.90;;;;;;4934744;29;20077;-70
2023/03/05 07:55:12;;;;;;;22.30;14.20;;;8.30;99.90;;;;;;4934217;29;20046;-69
2023/03/05 07:57:39;;;;;;;22.95;15.18;;;8.40;99.90;;;;;;4934778;29;20044;-69
2023/03/05 08:00:08;;;;;;;28.33;17.35;;;8.60;99.90;;;;;;4934165;29;20056;-69
2023/03/05 08:02:35;;;;;;;29.90;18.48;;;8.60;99.90;;;;;;4933487;29;20134;-68
2023/03/05 08:05:03;;;;;;;28.65;16.60;;;8.60;99.90;;;;;;4934466;29;20040;-68
2023/03/05 08:07:30;;;;;;;38.97;20.17;;;8.60;99.90;;;;;;4934725;29;20040;-69
2023/03/05 08:09:57;;;;;;;37.03;19.83;;;8.60;99.90;;;;;;4932685;29;20062;-69
2023/03/05 08:12:24;;;;;;;31.45;18.35;;;8.60;99.90;;;;;;4917322;29;20563;-69
2023/03/05 08:14:52;;;;;;;36.33;19.58;;;8.70;99.90;;;;;;4906330;29;20059;-70
2023/03/05 08:17:19;;;;;;;27.33;18.30;;;8.70;99.90;;;;;;4934196;29;20432;-69
2023/03/05 08:19:46;;;;;;;31.38;19.70;;;8.70;99.90;;;;;;4933061;29;20047;-69
2023/03/05 08:22:15;;;;;;;32.75;18.88;;;8.50;99.90;;;;;;4926466;29;20062;-71
2023/03/05 08:24:42;;;;;;;30.27;18.13;;;8.70;99.90;;;;;;4911513;29;20047;-69
2023/03/05 08:27:09;;;;;;;30.02;19.38;;;8.80;99.90;;;;;;4934086;29;20051;-68
2023/03/05 08:29:37;;;;;;;26.10;16.15;;;8.90;99.90;;;;;;4929743;29;20095;-68
2023/03/05 08:32:04;;;;;;;30.77;17.55;;;8.80;99.90;;;;;;4924957;29;20043;-69
2023/03/05 08:34:32;;;;;;;28.38;18.00;;;8.70;99.90;;;;;;4916894;29;20412;-68
2023/03/05 08:36:59;;;;;;;31.27;18.38;;;8.90;99.90;;;;;;4910390;29;20036;-69
2023/03/05 08:39:28;;;;;;;29.63;16.85;;;9.00;99.90;;;;;;4933473;29;20051;-68
2023/03/05 08:41:56;;;;;;;29.95;17.92;;;9.00;99.90;;;;;;4933765;29;20115;-69
2023/03/05 08:44:23;;;;;;;28.58;17.75;;;9.00;99.90;;;;;;4933867;29;20046;-68
2023/03/05 08:46:50;;;;;;;32.35;18.20;;;9.20;99.90;;;;;;4917178;29;20036;-70
2023/03/05 08:49:17;;;;;;;29.88;17.90;;;8.90;99.90;;;;;;4933328;29;20048;-70
2023/03/05 08:51:45;;;;;;;30.88;17.40;;;9.10;99.90;;;;;;4933665;29;20061;-69
2023/03/05 08:54:12;;;;;;;31.75;16.83;;;9.10;99.90;;;;;;4933764;29;20050;-67
2023/03/05 08:56:39;;;;;;;28.83;17.00;;;9.10;99.90;;;;;;4932583;29;20058;-71
2023/03/05 08:59:07;;;;;;;27.60;16.17;;;9.10;99.90;;;;;;4933502;29;20046;-71
2023/03/05 09:01:34;;;;;;;28.35;16.05;;;9.20;99.90;;;;;;4933614;29;20657;-70
2023/03/05 09:04:02;;;;;;;25.63;15.68;;;9.30;99.90;;;;;;4932509;29;20036;-71
2023/03/05 09:06:30;;;;;;;28.92;16.60;;;9.20;99.90;;;;;;4933710;29;20039;-71
2023/03/05 09:08:57;;;;;;;26.45;17.70;;;9.30;99.90;;;;;;4932095;29;20392;-70
2023/03/05 09:11:24;;;;;;;32.38;17.08;;;9.30;99.90;;;;;;4933236;29;20193;-70
2023/03/05 09:13:51;;;;;;;31.45;16.90;;;9.30;99.90;;;;;;4933279;29;20044;-68
2023/03/05 09:16:20;;;;;;;28.95;17.88;;;9.30;99.90;;;;;;4932773;29;20050;-68
2023/03/05 09:18:47;;;;;;;33.75;20.77;;;9.40;99.90;;;;;;4933411;29;20043;-68
2023/03/05 09:21:16;;;;;;;65.13;37.90;;;9.60;99.90;;;;;;4932082;29;20039;-69
2023/03/05 09:23:43;;;;;;;71.43;40.08;;;9.90;99.90;;;;;;4921368;29;20071;-68
2023/03/05 09:26:14;;;;;;;37.67;21.05;;;10.00;99.90;;;;;;4932896;29;20542;-69
2023/03/05 09:28:42;;;;;;;;;;;9.90;99.90;;;;;;4932489;29;20396;-69
2023/03/05 09:31:10;;;;;;;30.23;16.17;;;9.90;99.90;;;;;;4928854;29;19927;-70
2023/03/05 09:33:38;;;;;;;29.15;16.30;;;9.90;99.90;;;;;;4929349;29;20075;-70
2023/03/05 09:36:18;;;;;;;27.05;17.33;;;9.90;99.90;;;;;;4933276;29;20039;-72
2023/03/05 09:38:45;;;;;;;31.00;16.35;;;9.90;99.90;;;;;;4932571;29;20056;-72
2023/03/05 09:41:36;;;;;;;30.55;15.93;;;10.00;99.90;;;;;;4932230;29;20052;-69
2023/03/05 09:44:25;;;;;;;27.02;15.70;;;10.00;99.90;;;;;;4915625;29;20392;-69
2023/03/05 09:46:55;;;;;;;26.02;15.00;;;10.20;99.90;;;;;;4933133;29;20047;-69
2023/03/05 09:49:47;;;;;;;22.95;14.32;;;10.30;99.90;;;;;;4932821;29;20043;-70
2023/03/05 09:52:22;;;;;;;25.92;15.65;;;10.30;99.90;;;;;;4898305;29;20399;-72
2023/03/05 09:54:56;;;;;;;24.55;14.93;;;10.40;99.90;;;;;;4896277;29;20048;-69
2023/03/05 09:57:35;;;;;;;25.23;15.30;;;10.40;99.90;;;;;;4931904;29;20656;-76
2023/03/05 10:00:09;;;;;;;23.63;14.90;;;10.40;99.90;;;;;;4933968;29;20432;-69
2023/03/05 10:02:46;;;;;;;21.38;14.18;;;10.80;99.90;;;;;;4937003;29;20127;-71
2023/03/05 10:05:23;;;;;;;23.27;13.73;;;10.70;99.90;;;;;;4912374;29;20048;-76
2023/03/05 10:08:02;;;;;;;17.52;12.40;;;10.70;99.90;;;;;;4936261;29;20050;-70
2023/03/05 10:10:38;;;;;;;21.02;12.98;;;10.90;99.90;;;;;;4901076;29;20484;-72
2023/03/05 10:13:19;;;;;;;22.73;12.95;;;11.10;99.90;;;;;;4935295;29;20893;-75
2023/03/05 10:15:56;;;;;;;19.17;13.48;;;11.30;99.90;;;;;;4917725;29;20433;-72
2023/03/05 10:18:53;;;;;;;23.92;13.40;;;11.40;99.90;;;;;;4910655;29;20054;-70
2023/03/05 10:21:39;;;;;;;20.20;13.25;;;11.40;99.90;;;;;;4895009;29;20055;-71
2023/03/05 10:24:09;;;;;;;19.58;12.38;;;11.60;99.90;;;;;;4905272;29;20063;-73
2023/03/05 10:27:01;;;;;;;18.85;12.93;;;11.80;99.90;;;;;;4886324;29;20404;-70
2023/03/05 10:29:50;;;;;;;20.52;13.38;;;11.60;99.90;;;;;;4933346;29;20072;-69
2023/03/05 10:32:51;;;;;;;18.52;11.98;;;11.90;99.90;;;;;;4919444;29;20547;-72
2023/03/05 10:35:34;;;;;;;19.55;13.55;;;11.50;99.60;;;;;;4919123;29;20496;-73
2023/03/05 10:38:10;;;;;;;22.10;14.27;;;11.60;99.90;;;;;;4934274;29;20150;-74
2023/03/05 10:40:59;;;;;;;29.52;18.02;;;11.70;99.90;;;;;;4921818;29;20058;-71
2023/03/05 10:43:45;;;;;;;19.95;13.63;;;11.40;99.90;;;;;;4921626;29;20060;-69
2023/03/05 10:46:17;;;;;;;18.70;12.13;;;11.50;99.90;;;;;;4925619;29;20424;-69
2023/03/05 10:48:50;;;;;;;23.10;12.52;;;11.40;99.90;;;;;;4935525;29;20035;-71
2023/03/05 10:51:28;;;;;;;21.58;13.02;;;11.10;99.90;;;;;;4910900;29;20048;-72
2023/03/05 10:53:58;;;;;;;17.45;11.43;;;10.90;99.90;;;;;;4923197;29;20048;-74
2023/03/05 10:56:27;;;;;;;21.70;12.77;;;10.90;99.90;;;;;;4935769;29;20059;-73
2023/03/05 10:59:02;;;;;;;22.48;13.48;;;11.00;99.90;;;;;;4910173;29;20043;-70
2023/03/05 11:01:31;;;;;;;21.42;13.95;;;10.60;99.90;;;;;;4931306;29;20044;-70
2023/03/05 11:04:09;;;;;;;24.02;14.38;;;10.60;99.90;;;;;;4935758;29;20151;-73
2023/03/05 11:06:47;;;;;;;24.88;13.88;;;10.60;99.90;;;;;;4935783;29;20051;-70
2023/03/05 11:09:18;;;;;;;27.02;15.00;;;10.90;99.90;;;;;;4905586;29;20058;-69
2023/03/05 11:12:10;;;;;;;26.70;15.15;;;10.90;99.90;;;;;;4934939;29;20519;-68
2023/03/05 11:14:59;;;;;;;22.75;14.68;;;11.30;99.90;;;;;;4934765;29;20051;-71
2023/03/05 11:17:43;;;;;;;23.88;15.52;;;11.50;99.90;;;;;;4934787;29;20052;-69
2023/03/05 11:20:25;;;;;;;22.55;14.18;;;11.50;99.90;;;;;;4923898;29;20044;-71
2023/03/05 11:23:11;;;;;;;24.02;14.80;;;11.70;99.90;;;;;;4922266;29;20040;-71
2023/03/05 11:25:55;;;;;;;21.60;13.90;;;11.90;99.90;;;;;;4934927;29;20054;-71
2023/03/05 11:28:32;;;;;;;24.38;15.40;;;11.90;99.90;;;;;;4892760;29;20043;-71
2023/03/05 11:31:23;;;;;;;20.98;13.98;;;12.00;99.90;;;;;;4902569;29;20047;-70
2023/03/05 11:34:16;;;;;;;24.27;14.52;;;12.20;99.90;;;;;;4910539;29;20051;-71
2023/03/05 11:37:02;;;;;;;25.73;14.52;;;12.40;99.20;;;;;;4904786;29;20044;-70
2023/03/05 11:39:37;;;;;;;23.77;14.13;;;12.50;98.40;;;;;;4902402;29;20075;-71
2023/03/05 11:42:27;;;;;;;23.83;13.95;;;12.50;98.30;;;;;;4934611;29;20048;-69
2023/03/05 11:44:55;;;;;;;27.48;15.07;;;12.80;98.30;;;;;;4917776;29;20044;-72
2023/03/05 11:47:27;;;;;;;34.40;21.77;;;12.50;97.70;;;;;;4884014;29;20047;-70
2023/03/05 11:50:15;;;;;;;50.47;30.48;;;12.50;97.70;;;;;;4899820;29;20388;-71
2023/03/05 11:53:10;;;;;;;48.33;30.52;;;12.40;99.00;;;;;;4904262;29;20055;-69
2023/03/05 11:55:49;;;;;;;28.95;18.63;;;12.70;99.20;;;;;;4921563;29;20156;-68
2023/03/05 11:58:34;;;;;;;23.95;14.68;;;12.80;97.30;;;;;;4921501;29;20123;-70
2023/03/05 12:01:13;;;;;;;23.60;14.48;;;12.80;95.20;;;;;;4917231;29;20464;-68
2023/03/05 12:03:41;;;;;;;22.73;14.10;;;12.80;95.60;;;;;;4916087;29;20139;-69
2023/03/05 12:06:39;;;;;;;21.02;13.45;;;13.10;95.10;;;;;;4917084;29;20393;-65
2023/03/05 12:09:39;;;;;;;23.88;14.90;;;13.20;93.60;;;;;;4933187;29;20143;-68
2023/03/05 12:12:44;;;;;;;23.83;14.25;;;13.30;93.70;;;;;;4934894;29;20480;-68
2023/03/05 12:15:11;;;;;;;20.90;13.98;;;13.40;93.30;;;;;;4934278;29;20035;-67
2023/03/05 12:17:43;;;;;;;22.45;14.82;;;13.30;92.70;;;;;;4915548;29;20056;-75
2023/03/05 12:20:52;;;;;;;19.50;12.88;;;13.40;93.60;;;;;;4934467;29;20043;-72
2023/03/05 12:23:21;;;;;;;17.98;11.50;;;13.50;88.60;;;;;;4918050;29;20043;-75
2023/03/05 12:25:48;;;;;;;19.05;12.65;;;12.60;90.00;;;;;;4933906;29;20436;-68
2023/03/05 12:28:36;;;;;;;22.25;14.00;;;13.20;90.40;;;;;;4901617;29;20059;-71
2023/03/05 12:31:24;;;;;;;20.48;12.43;;;13.20;86.90;;;;;;4928384;29;20051;-68
2023/03/05 12:33:51;;;;;;;20.90;13.38;;;13.10;90.20;;;;;;4934211;29;20094;-71
2023/03/05 12:36:22;;;;;;;16.48;11.07;;;13.40;87.60;;;;;;4916691;29;20448;-71
2023/03/05 12:38:54;;;;;;;20.23;11.48;;;12.90;84.00;;;;;;4932864;29;20043;-69
2023/03/05 12:41:21;;;;;;;18.63;11.07;;;13.00;84.90;;;;;;4933126;29;20039;-73
2023/03/05 12:44:06;;;;;;;16.63;10.95;;;12.60;85.20;;;;;;4932940;29;20054;-69
2023/03/05 12:46:44;;;;;;;19.77;12.15;;;12.90;85.60;;;;;;4932970;29;20043;-67
2023/03/05 12:49:19;;;;;;;17.90;11.13;;;14.00;82.80;;;;;;4906686;29;20543;-69
2023/03/05 12:51:51;;;;;;;17.65;11.25;;;14.50;80.10;;;;;;4928135;29;20048;-67
2023/03/05 12:54:21;;;;;;;19.48;11.93;;;13.80;78.00;;;;;;4910627;29;20090;-71
2023/03/05 12:56:51;;;;;;;16.13;11.07;;;13.90;79.10;;;;;;4932827;29;20360;-69